createdAt,value
2018-12-27T00:00:31.515Z,25.02
2018-12-27T00:02:59.914Z,27.37
2018-12-27T00:05:29.366Z,29.40
2018-12-27T00:07:57.694Z,25.62
2018-12-27T00:10:26.558Z,23.60
2018-12-27T00:12:55.033Z,24.98
2018-12-27T00:15:23.377Z,23.73
2018-12-27T00:17:51.731Z,21.35
2018-12-27T00:20:20.165Z,22.82
2018-12-27T00:22:48.690Z,24.05
2018-12-27T00:25:17.229Z,20.30
2018-12-27T00:27:45.677Z,20.65
2018-12-27T00:30:14.115Z,19.98
2018-12-27T00:32:42.615Z,22.65
2018-12-27T00:35:10.953Z,16.25
2018-12-27T00:37:39.299Z,19.35
2018-12-27T00:40:07.654Z,21.17
2018-12-27T00:42:36.125Z,19.55
2018-12-27T00:45:06.072Z,20.48
2018-12-27T00:47:34.544Z,24.30
2018-12-27T00:50:02.886Z,20.88
2018-12-27T00:52:31.335Z,21.35
2018-12-27T00:54:59.686Z,20.20
2018-12-27T00:57:28.126Z,21.57
2018-12-27T00:59:56.574Z,22.50
2018-12-27T01:02:24.956Z,16.20
2018-12-27T01:04:53.414Z,16.07
2018-12-27T01:07:22.682Z,13.83
2018-12-27T01:09:51.151Z,20.05
2018-12-27T01:12:19.492Z,18.85
2018-12-27T01:14:47.844Z,20.92
2018-12-27T01:17:17.976Z,16.67
2018-12-27T01:19:46.447Z,20.02
2018-12-27T01:22:14.995Z,22.45
2018-12-27T01:24:43.459Z,18.57
2018-12-27T01:27:11.795Z,18.27
2018-12-27T01:29:40.144Z,19.60
2018-12-27T01:32:08.578Z,21.60
2018-12-27T01:34:37.020Z,15.15
2018-12-27T01:37:05.362Z,14.95
2018-12-27T01:39:33.703Z,15.80
2018-12-27T01:42:02.092Z,18.52
2018-12-27T01:44:30.462Z,14.53
2018-12-27T01:47:00.595Z,12.93
2018-12-27T01:49:28.944Z,14.90
2018-12-27T01:51:57.453Z,13.13
2018-12-27T01:54:26.001Z,12.88
2018-12-27T01:56:54.432Z,13.13
2018-12-27T01:59:27.534Z,14.68
2018-12-27T02:01:55.980Z,16.70
2018-12-27T02:04:24.635Z,14.10
2018-12-27T02:06:54.170Z,13.80
2018-12-27T02:09:22.519Z,13.58
2018-12-27T02:11:51.167Z,12.85
2018-12-27T02:14:19.519Z,13.25
2018-12-27T02:16:47.861Z,11.90
2018-12-27T02:19:16.304Z,10.10
2018-12-27T02:21:46.491Z,10.65
2018-12-27T02:24:14.949Z,8.18
2018-12-27T02:26:43.382Z,10.38
2018-12-27T02:29:11.830Z,11.03
2018-12-27T02:31:40.935Z,12.70
2018-12-27T02:34:09.390Z,11.55
2018-12-27T02:36:37.840Z,9.03
2018-12-27T02:39:07.131Z,11.88
2018-12-27T02:41:35.567Z,12.30
2018-12-27T02:44:03.925Z,12.18
2018-12-27T02:46:32.470Z,10.95
2018-12-27T02:49:00.921Z,9.55
2018-12-27T02:51:29.384Z,12.78
2018-12-27T02:53:57.828Z,11.48
2018-12-27T02:56:26.176Z,13.03
2018-12-27T02:58:54.605Z,11.83
2018-12-27T03:01:23.251Z,13.38
2018-12-27T03:03:51.592Z,10.53
2018-12-27T03:06:21.752Z,8.80
2018-12-27T03:08:50.171Z,10.28
2018-12-27T03:11:18.717Z,11.68
2018-12-27T03:13:47.155Z,13.30
2018-12-27T03:16:15.595Z,9.68
2018-12-27T03:18:43.930Z,9.10
2018-12-27T03:21:12.329Z,8.88
2018-12-27T03:23:40.768Z,10.35
2018-12-27T03:26:10.908Z,12.10
2018-12-27T03:28:39.237Z,12.33
2018-12-27T03:31:07.688Z,10.45
2018-12-27T03:33:36.132Z,10.45
2018-12-27T03:36:04.476Z,8.23
2018-12-27T03:38:32.816Z,6.85
2018-12-27T03:41:01.565Z,11.68
2018-12-27T03:43:29.997Z,9.03
2018-12-27T03:45:59.047Z,11.43
2018-12-27T03:48:27.888Z,13.38
2018-12-27T03:50:56.335Z,14.78
2018-12-27T03:53:24.667Z,12.78
2018-12-27T03:55:53.621Z,23.00
2018-12-27T03:58:22.571Z,18.25
2018-12-27T04:00:51.014Z,16.25
2018-12-27T04:03:19.548Z,16.20
2018-12-27T04:05:48.047Z,17.77
2018-12-27T04:08:17.035Z,17.62
2018-12-27T04:10:45.388Z,12.10
2018-12-27T04:13:13.870Z,17.60
2018-12-27T04:15:43.122Z,13.30
2018-12-27T04:18:11.656Z,13.98
2018-12-27T04:20:40.008Z,19.05
2018-12-27T04:23:09.229Z,13.03
2018-12-27T04:25:37.689Z,13.28
2018-12-27T04:28:06.024Z,15.03
2018-12-27T04:30:34.563Z,17.00
2018-12-27T04:33:11.539Z,13.05
2018-12-27T04:35:40.176Z,16.90
2018-12-27T04:38:08.531Z,12.80
2018-12-27T04:40:38.660Z,13.83
2018-12-27T04:43:07.155Z,20.92
2018-12-27T04:45:36.787Z,13.95
2018-12-27T04:48:05.136Z,12.40
2018-12-27T04:50:33.579Z,11.35
2018-12-27T04:53:02.000Z,14.00
2018-12-27T04:55:30.347Z,13.93
2018-12-27T04:57:58.683Z,11.33
2018-12-27T05:00:28.469Z,12.07
2018-12-27T05:02:56.947Z,10.93
2018-12-27T05:05:25.402Z,12.65
2018-12-27T05:07:53.945Z,14.28
2018-12-27T05:10:23.018Z,10.78
2018-12-27T05:12:51.483Z,12.25
2018-12-27T05:15:19.834Z,14.13
2018-12-27T05:17:48.272Z,13.65
2018-12-27T05:20:16.625Z,13.83
2018-12-27T05:22:45.415Z,10.35
2018-12-27T05:25:15.466Z,13.28
2018-12-27T05:27:43.902Z,16.75
2018-12-27T05:30:12.423Z,16.77
2018-12-27T05:32:40.964Z,13.20
2018-12-27T05:35:10.923Z,11.93
2018-12-27T05:37:39.253Z,13.00
2018-12-27T05:40:07.725Z,11.38
2018-12-27T05:42:36.184Z,9.95
2018-12-27T05:45:04.789Z,10.58
2018-12-27T05:47:33.237Z,15.18
2018-12-27T05:50:01.570Z,13.60
2018-12-27T05:52:31.843Z,12.15
2018-12-27T05:55:00.271Z,10.82
2018-12-27T05:57:28.621Z,11.20
2018-12-27T05:59:57.052Z,10.90
2018-12-27T06:02:25.507Z,12.70
2018-12-27T06:04:55.143Z,12.13
2018-12-27T06:07:23.701Z,13.35
2018-12-27T06:09:52.031Z,10.65
2018-12-27T06:12:20.453Z,12.75
2018-12-27T06:14:48.796Z,13.70
2018-12-27T06:17:17.342Z,11.12
2018-12-27T06:19:45.686Z,17.02
2018-12-27T06:22:14.764Z,12.95
2018-12-27T06:24:43.227Z,16.32
2018-12-27T06:27:13.348Z,11.93
2018-12-27T06:29:41.789Z,13.72
2018-12-27T06:32:10.432Z,10.72
2018-12-27T06:34:41.452Z,10.88
2018-12-27T06:37:09.017Z,10.35
2018-12-27T06:39:37.344Z,11.55
2018-12-27T06:42:05.723Z,8.80
2018-12-27T06:44:34.107Z,9.15
2018-12-27T06:47:02.584Z,10.20
2018-12-27T06:49:31.024Z,10.72
2018-12-27T06:51:59.446Z,9.25
2018-12-27T06:54:27.797Z,10.93
2018-12-27T06:56:56.135Z,10.40
2018-12-27T06:59:28.399Z,9.65
2018-12-27T07:01:56.800Z,9.98
2018-12-27T07:04:26.058Z,11.53
2018-12-27T07:06:54.490Z,9.80
2018-12-27T07:09:22.946Z,9.55
2018-12-27T07:11:51.395Z,12.00
2018-12-27T07:14:20.772Z,10.25
2018-12-27T07:16:49.209Z,12.43
2018-12-27T07:19:17.773Z,13.08
2018-12-27T07:21:46.226Z,17.10
2018-12-27T07:24:14.589Z,13.65
2018-12-27T07:26:44.462Z,13.48
2018-12-27T07:29:13.518Z,13.25
2018-12-27T07:31:42.005Z,17.27
2018-12-27T07:34:10.503Z,16.37
2018-12-27T07:36:38.845Z,18.48
2018-12-27T07:39:08.554Z,17.77
2018-12-27T07:41:37.121Z,28.87
2018-12-27T07:44:05.880Z,27.90
2018-12-27T07:46:36.017Z,27.25
2018-12-27T07:49:04.489Z,25.12
2018-12-27T07:51:32.834Z,22.07
2018-12-27T07:54:01.578Z,20.77
2018-12-27T07:56:30.045Z,21.30
2018-12-27T07:58:58.382Z,16.23
2018-12-27T08:01:26.836Z,14.87
2018-12-27T08:03:55.267Z,14.05
2018-12-27T08:06:25.113Z,14.43
2018-12-27T08:08:53.943Z,17.02
2018-12-27T08:11:22.492Z,18.37
2018-12-27T08:13:50.831Z,18.40
2018-12-27T08:16:19.267Z,19.92
2018-12-27T08:18:47.712Z,20.02
2018-12-27T08:21:16.182Z,17.10
2018-12-27T08:23:44.526Z,17.40
2018-12-27T08:26:12.858Z,20.52
2018-12-27T08:28:41.907Z,18.57
2018-12-27T08:31:10.421Z,19.30
2018-12-27T08:33:38.754Z,19.62
2018-12-27T08:36:07.204Z,16.32
2018-12-27T08:38:35.533Z,17.50
2018-12-27T08:41:03.878Z,16.90
2018-12-27T08:43:32.305Z,16.05
2018-12-27T08:46:00.750Z,18.27
2018-12-27T08:48:30.079Z,19.27
2018-12-27T08:50:59.642Z,23.10
2018-12-27T08:53:28.087Z,17.37
2018-12-27T08:55:58.027Z,23.77
2018-12-27T08:58:26.373Z,21.97
2018-12-27T09:00:55.212Z,23.00
2018-12-27T09:03:23.793Z,22.00
2018-12-27T09:05:53.330Z,20.77
2018-12-27T09:08:21.664Z,20.85
2018-12-27T09:10:50.808Z,24.02
2018-12-27T09:13:19.339Z,23.42
2018-12-27T09:15:47.812Z,18.95
2018-12-27T09:18:16.140Z,22.87
2018-12-27T09:20:44.590Z,21.48
2018-12-27T09:23:14.553Z,19.85
2018-12-27T09:25:43.107Z,19.20
2018-12-27T09:28:11.559Z,17.55
2018-12-27T09:30:39.894Z,18.65
2018-12-27T09:33:08.388Z,16.80
2018-12-27T09:35:36.870Z,20.55
2018-12-27T09:38:05.344Z,14.85
2018-12-27T09:40:35.892Z,19.55
2018-12-27T09:43:04.480Z,19.10
2018-12-27T09:45:34.791Z,20.27
2018-12-27T09:48:03.155Z,17.80
2018-12-27T09:50:31.575Z,11.73
2018-12-27T09:53:00.082Z,18.00
2018-12-27T09:55:28.423Z,12.03
2018-12-27T09:57:56.868Z,14.98
2018-12-27T10:00:29.791Z,11.05
2018-12-27T10:02:58.291Z,13.25
2018-12-27T10:05:33.596Z,14.70
2018-12-27T10:07:57.528Z,12.65
2018-12-27T10:10:26.095Z,11.60
2018-12-27T10:12:55.783Z,17.02
2018-12-27T10:15:24.126Z,13.38
2018-12-27T10:17:52.562Z,9.93
2018-12-27T10:20:22.704Z,16.45
2018-12-27T10:22:51.450Z,11.78
2018-12-27T10:25:19.807Z,11.35
2018-12-27T10:27:48.141Z,14.53
2018-12-27T10:30:16.596Z,11.57
2018-12-27T10:32:45.140Z,14.30
2018-12-27T10:35:15.009Z,11.80
2018-12-27T10:37:43.450Z,15.93
2018-12-27T10:40:12.164Z,16.45
2018-12-27T10:42:40.738Z,12.20
2018-12-27T10:45:09.293Z,15.50
2018-12-27T10:47:37.744Z,13.10
2018-12-27T10:50:07.456Z,19.07
2018-12-27T10:52:35.908Z,15.20
2018-12-27T10:55:05.114Z,15.70
2018-12-27T10:57:34.912Z,21.40
2018-12-27T11:00:04.472Z,18.30
2018-12-27T11:02:33.703Z,15.80
2018-12-27T11:05:02.168Z,15.97
2018-12-27T11:07:30.510Z,22.37
2018-12-27T11:09:58.969Z,17.80
2018-12-27T11:12:27.423Z,22.00
2018-12-27T11:14:55.971Z,19.77
2018-12-27T11:17:24.422Z,20.90
2018-12-27T11:19:52.869Z,21.20
2018-12-27T11:22:21.339Z,23.03
2018-12-27T11:24:49.788Z,21.40
2018-12-27T11:27:18.226Z,20.37
2018-12-27T11:29:48.344Z,16.77
2018-12-27T11:32:16.827Z,23.20
2018-12-27T11:34:46.670Z,20.80
2018-12-27T11:37:15.119Z,17.37
2018-12-27T11:39:43.852Z,17.60
2018-12-27T11:42:12.289Z,19.93
2018-12-27T11:44:40.718Z,15.53
2018-12-27T11:47:09.159Z,17.83
2018-12-27T11:49:39.283Z,18.67
2018-12-27T11:52:07.738Z,18.10
2018-12-27T11:54:36.161Z,17.87
2018-12-27T11:57:04.512Z,22.10
2018-12-27T11:59:32.850Z,16.00
2018-12-27T12:02:01.251Z,21.10
2018-12-27T12:04:29.688Z,15.40
2018-12-27T12:06:58.031Z,16.33
2018-12-27T12:09:26.380Z,18.67
2018-12-27T12:11:54.852Z,17.63
2018-12-27T12:14:23.200Z,16.90
2018-12-27T12:16:51.643Z,17.70
2018-12-27T12:19:20.097Z,15.10
2018-12-27T12:21:48.422Z,16.93
2018-12-27T12:24:16.867Z,14.87
2018-12-27T12:26:45.304Z,15.10
2018-12-27T12:29:13.857Z,15.63
2018-12-27T12:31:42.263Z,17.70
2018-12-27T12:34:10.703Z,15.50
2018-12-27T12:36:41.111Z,15.60
2018-12-27T12:39:09.603Z,16.70
2018-12-27T12:41:38.267Z,15.40
2018-12-27T12:44:06.614Z,16.60
2018-12-27T12:46:35.059Z,17.90
2018-12-27T12:49:03.476Z,19.17
2018-12-27T12:51:31.964Z,17.73
2018-12-27T12:54:00.401Z,16.97
2018-12-27T12:56:30.539Z,18.57
2018-12-27T12:58:59.421Z,16.83
2018-12-27T13:01:27.965Z,15.83
2018-12-27T13:03:56.320Z,19.20
2018-12-27T13:06:25.252Z,19.37
2018-12-27T13:08:53.736Z,18.50
2018-12-27T13:11:22.475Z,15.40
2018-12-27T13:13:50.941Z,19.63
2018-12-27T13:16:20.506Z,18.93
2018-12-27T13:18:48.904Z,16.30
2018-12-27T13:21:17.255Z,19.53
2018-12-27T13:23:45.821Z,16.90
2018-12-27T13:26:14.279Z,18.40
2018-12-27T13:28:42.616Z,19.03
2018-12-27T13:31:11.621Z,18.43
2018-12-27T13:33:40.055Z,16.93
2018-12-27T13:36:08.408Z,16.73
2018-12-27T13:38:37.054Z,16.63
2018-12-27T13:41:05.393Z,17.63
2018-12-27T13:43:35.015Z,17.03
2018-12-27T13:46:03.486Z,17.13
2018-12-27T13:48:31.845Z,18.00
2018-12-27T13:51:00.703Z,17.20
2018-12-27T13:53:29.263Z,14.30
2018-12-27T13:55:57.723Z,18.03
2018-12-27T13:58:26.073Z,14.93
2018-12-27T14:00:55.268Z,16.00
2018-12-27T14:03:23.669Z,16.80
2018-12-27T14:05:52.120Z,17.47
2018-12-27T14:08:20.629Z,14.17
2018-12-27T14:10:48.986Z,14.10
2018-12-27T14:13:17.916Z,14.47
2018-12-27T14:15:48.168Z,16.63
2018-12-27T14:18:16.605Z,16.57
2018-12-27T14:20:44.980Z,15.47
2018-12-27T14:23:13.362Z,14.67
2018-12-27T14:25:41.847Z,14.30
2018-12-27T14:28:10.312Z,18.83
2018-12-27T14:30:38.970Z,15.00
2018-12-27T14:33:07.564Z,19.43
2018-12-27T14:35:36.702Z,14.20
2018-12-27T14:38:05.524Z,14.10
2018-12-27T14:40:34.242Z,16.00
2018-12-27T14:43:02.928Z,13.73
2018-12-27T14:45:33.096Z,16.10
2018-12-27T14:48:02.235Z,14.97
2018-12-27T14:50:30.600Z,16.43
2018-12-27T14:52:59.114Z,13.30
2018-12-27T14:55:28.712Z,17.90
2018-12-27T14:57:58.928Z,13.83
2018-12-27T15:00:30.756Z,13.77
2018-12-27T15:02:59.628Z,18.77
2018-12-27T15:05:28.063Z,19.33
2018-12-27T15:07:56.516Z,15.00
2018-12-27T15:10:24.865Z,14.00
2018-12-27T15:12:53.344Z,19.83
2018-12-27T15:15:21.784Z,16.83
2018-12-27T15:17:50.240Z,18.80
2018-12-27T15:20:18.587Z,19.60
2018-12-27T15:22:46.937Z,19.90
2018-12-27T15:25:15.379Z,25.43
2018-12-27T15:27:43.831Z,19.33
2018-12-27T15:30:12.275Z,17.48
2018-12-27T15:32:40.933Z,22.10
2018-12-27T15:35:10.278Z,22.75
2018-12-27T15:37:38.716Z,32.23
2018-12-27T15:40:07.183Z,31.25
2018-12-27T15:42:35.721Z,26.42
2018-12-27T15:45:04.230Z,25.50
2018-12-27T15:47:32.572Z,24.02
2018-12-27T15:50:00.939Z,24.43
2018-12-27T15:52:30.645Z,26.82
2018-12-27T15:54:58.995Z,33.55
2018-12-27T15:57:27.648Z,34.18
2018-12-27T15:59:56.091Z,31.02
2018-12-27T16:02:26.240Z,38.48
2018-12-27T16:04:54.575Z,41.95
2018-12-27T16:07:23.529Z,35.25
2018-12-27T16:09:51.862Z,32.95
2018-12-27T16:12:20.804Z,30.10
2018-12-27T16:14:49.591Z,29.87
2018-12-27T16:17:18.936Z,36.23
2018-12-27T16:19:47.370Z,39.33
2018-12-27T16:22:15.815Z,38.15
2018-12-27T16:24:44.267Z,31.35
2018-12-27T16:27:12.603Z,32.38
2018-12-27T16:29:41.047Z,31.73
2018-12-27T16:32:09.499Z,32.20
2018-12-27T16:34:38.039Z,33.95
2018-12-27T16:37:09.156Z,29.72
2018-12-27T16:39:39.271Z,36.48
2018-12-27T16:42:07.767Z,34.10
2018-12-27T16:44:36.304Z,38.10
2018-12-27T16:47:04.669Z,39.78
2018-12-27T16:49:33.204Z,37.48
2018-12-27T16:52:01.603Z,37.63
2018-12-27T16:54:31.741Z,33.02
2018-12-27T16:57:00.113Z,31.05
2018-12-27T16:59:28.549Z,37.15
2018-12-27T17:01:56.999Z,28.75
2018-12-27T17:04:26.448Z,29.60
2018-12-27T17:06:54.794Z,32.80
2018-12-27T17:09:23.140Z,33.65
2018-12-27T17:11:52.691Z,37.13
2018-12-27T17:14:21.152Z,34.80
2018-12-27T17:16:49.493Z,32.38
2018-12-27T17:19:17.845Z,34.45
2018-12-27T17:21:46.459Z,33.92
2018-12-27T17:24:14.846Z,32.40
2018-12-27T17:26:43.499Z,30.35
2018-12-27T17:29:11.843Z,30.35
2018-12-27T17:31:40.366Z,30.32
2018-12-27T17:34:08.722Z,32.03
2018-12-27T17:36:37.783Z,45.88
2018-12-27T17:39:07.404Z,44.88
2018-12-27T17:41:35.842Z,48.30
2018-12-27T17:44:05.373Z,50.28
2018-12-27T17:46:33.716Z,43.48
2018-12-27T17:49:02.047Z,35.05
2018-12-27T17:51:30.573Z,41.33
2018-12-27T17:53:59.032Z,38.92
2018-12-27T17:56:27.374Z,31.37
2018-12-27T17:58:55.832Z,29.30
2018-12-27T18:01:24.658Z,31.05
2018-12-27T18:03:53.021Z,33.48
2018-12-27T18:06:21.358Z,34.00
2018-12-27T18:08:49.819Z,33.60
2018-12-27T18:11:18.276Z,32.33
2018-12-27T18:13:46.665Z,30.23
2018-12-27T18:16:16.400Z,32.00
2018-12-27T18:18:44.995Z,32.53
2018-12-27T18:21:13.549Z,31.55
2018-12-27T18:23:41.888Z,33.13
2018-12-27T18:26:10.443Z,33.75
2018-12-27T18:28:38.971Z,29.57
2018-12-27T18:31:07.322Z,30.97
2018-12-27T18:33:35.888Z,28.42
2018-12-27T18:36:05.252Z,38.67
2018-12-27T18:38:33.781Z,30.17
2018-12-27T18:41:02.233Z,30.57
2018-12-27T18:43:30.672Z,30.82
2018-12-27T18:45:59.107Z,29.65
2018-12-27T18:48:27.574Z,30.90
2018-12-27T18:50:56.535Z,33.60
2018-12-27T18:53:25.048Z,31.20
2018-12-27T18:55:53.477Z,63.00
2018-12-27T18:58:22.028Z,41.98
2018-12-27T19:00:50.363Z,30.65
2018-12-27T19:03:18.895Z,32.78
2018-12-27T19:05:47.231Z,32.95
2018-12-27T19:08:15.586Z,27.00
2018-12-27T19:11:22.860Z,31.23
2018-12-27T19:13:51.313Z,33.73
2018-12-27T19:16:22.572Z,31.23
2018-12-27T19:18:51.180Z,27.62
2018-12-27T19:21:47.964Z,32.33
2018-12-27T19:24:18.124Z,31.93
2018-12-27T19:26:46.462Z,35.38
2018-12-27T19:29:15.093Z,38.50
2018-12-27T19:31:43.557Z,34.67
2018-12-27T19:34:12.534Z,39.60
2018-12-27T19:36:41.009Z,32.58
2018-12-27T19:39:11.590Z,41.15
2018-12-27T19:41:40.102Z,38.40
2018-12-27T19:44:08.660Z,39.60
2018-12-27T19:46:37.100Z,37.93
2018-12-27T19:49:05.460Z,33.08
2018-12-27T19:51:33.828Z,34.88
2018-12-27T19:54:02.301Z,38.15
2018-12-27T19:56:31.772Z,38.05
2018-12-27T19:59:00.120Z,33.85
2018-12-27T20:01:28.652Z,48.92
2018-12-27T20:03:57.111Z,37.65
2018-12-27T20:06:25.592Z,47.10
2018-12-27T20:08:54.043Z,57.95
2018-12-27T20:11:24.254Z,58.33
2018-12-27T20:13:52.644Z,57.95
2018-12-27T20:16:21.004Z,56.55
2018-12-27T20:18:49.745Z,62.48
2018-12-27T20:21:18.131Z,55.90
2018-12-27T20:23:46.624Z,53.68
2018-12-27T20:26:15.424Z,50.58
2018-12-27T20:28:44.689Z,47.33
2018-12-27T20:31:13.154Z,55.90
2018-12-27T20:33:41.528Z,45.83
2018-12-27T20:36:10.229Z,44.75
2018-12-27T20:38:38.580Z,42.60
2018-12-27T20:41:07.261Z,47.08
2018-12-27T20:43:38.172Z,47.43
2018-12-27T20:46:06.839Z,40.67
2018-12-27T20:48:35.185Z,40.50
2018-12-27T20:51:03.537Z,37.10
2018-12-27T20:53:32.432Z,35.78
2018-12-27T20:56:00.878Z,38.42
2018-12-27T20:58:29.750Z,37.80
2018-12-27T21:00:58.104Z,28.20
2018-12-27T21:03:26.870Z,29.67
2018-12-27T21:05:56.649Z,24.65
2018-12-27T21:08:25.447Z,31.50
2018-12-27T21:10:53.898Z,33.18
2018-12-27T21:13:23.709Z,22.02
2018-12-27T21:15:53.909Z,21.75
2018-12-27T21:18:22.530Z,21.50
2018-12-27T21:20:51.361Z,21.62
2018-12-27T21:23:19.904Z,22.32
2018-12-27T21:25:49.874Z,22.42
2018-12-27T21:28:18.355Z,20.02
2018-12-27T21:30:46.708Z,19.02
2018-12-27T21:33:15.256Z,20.95
2018-12-27T21:35:43.709Z,18.45
2018-12-27T21:38:12.039Z,23.30
2018-12-27T21:40:40.484Z,21.57
2018-12-27T21:43:08.993Z,17.05
2018-12-27T21:45:39.133Z,17.52
2018-12-27T21:48:07.582Z,20.08
2018-12-27T21:50:36.409Z,21.15
2018-12-27T21:53:04.886Z,20.62
2018-12-27T21:55:33.330Z,19.25
2018-12-27T21:58:01.695Z,22.15
2018-12-27T22:00:31.249Z,26.73
2018-12-27T22:02:59.732Z,20.48
2018-12-27T22:05:28.361Z,19.85
2018-12-27T22:07:56.719Z,20.95
2018-12-27T22:10:25.154Z,16.80
2018-12-27T22:12:53.656Z,17.92
2018-12-27T22:15:22.015Z,20.20
2018-12-27T22:17:50.576Z,18.17
2018-12-27T22:20:19.003Z,21.50
2018-12-27T22:22:50.395Z,21.17
2018-12-27T22:25:18.735Z,20.05
2018-12-27T22:27:48.076Z,25.12
2018-12-27T22:30:16.826Z,25.00
2018-12-27T22:32:45.355Z,22.87
2018-12-27T22:35:13.707Z,30.85
2018-12-27T22:37:42.161Z,32.85
2018-12-27T22:40:10.602Z,29.52
2018-12-27T22:42:39.058Z,30.12
2018-12-27T22:45:07.496Z,31.27
2018-12-27T22:47:36.044Z,34.38
2018-12-27T22:50:05.594Z,34.15
2018-12-27T22:52:34.060Z,31.17
2018-12-27T22:55:02.395Z,36.73
2018-12-27T22:57:30.751Z,35.20
2018-12-27T22:59:59.081Z,35.73
2018-12-27T23:02:27.576Z,36.60
2018-12-27T23:04:55.911Z,31.42
2018-12-27T23:07:25.147Z,31.57
2018-12-27T23:09:53.585Z,27.05
2018-12-27T23:12:22.007Z,27.22
2018-12-27T23:14:50.499Z,28.73
2018-12-27T23:17:20.660Z,26.57
2018-12-27T23:19:48.999Z,27.15
2018-12-27T23:22:17.553Z,27.35
2018-12-27T23:24:45.916Z,29.32
2018-12-27T23:27:14.268Z,27.67
2018-12-27T23:29:43.015Z,24.70
2018-12-27T23:32:11.384Z,25.17
2018-12-27T23:34:39.868Z,29.45
2018-12-27T23:37:08.298Z,30.45
2018-12-27T23:39:36.755Z,26.45
2018-12-27T23:42:05.178Z,24.60
2018-12-27T23:44:33.603Z,25.85
2018-12-27T23:47:02.045Z,23.00
2018-12-27T23:49:30.378Z,27.98
2018-12-27T23:51:58.840Z,24.40
2018-12-27T23:54:27.173Z,25.52
2018-12-27T23:56:55.620Z,26.70
2018-12-27T23:59:28.331Z,21.12
